Airfield :
LOGIN :

Register | Disclaimer

   EN    FR    IT 

 










Legend :    VFR   Marginal VFR   IFR   Intensive IFR   Very Intensive IFR
Visi :
Ceiling :
>= 8 km
>= 3000ft
5 to 8 km
1000 to 3000 ft
1500m to 5 km
500 to 1000 ft
800 to 1500m
200 to 500 ft
< 800m
< 200 ft
Symbols :   Thunderstorms  Fog  Heavy snow  Heavy precipitations  Wind > 20 kt
SIGMETs :     Misc.  Thunderstorms  Icing  Turbulence  Mountain Waves  Volcanic Ashes







- Airport Elevation : 659 ft
- IATA code : LGG


EBLG - Liège

CURRENT METAR :
  • 190150Z 03005KT 2800 BR NSC 10/09 Q1023 NOSIG

EXPIRED METARs :
  • 190120Z 03005KT 3000 BR NSC 10/09 Q1023 TEMPO 2500 BR
  • 190050Z 03005KT 3500 BR NSC 10/09 Q1023 TEMPO 2500 BR
  • 190020Z 04007KT 3800 BR FEW018 11/10 Q1024 NOSIG
  • 182350Z 05008KT 6000 FEW021 11/10 Q1024 BECMG 4000 BR
  • 182320Z 04007KT 030V090 6000 BKN024 12/10 Q1024 NOSIG

TAF TAF EBLG
Valid from the 19 at 00:00 until the 20 at 06:00 UTC


182300Z 1900/2006 03005KT 8000 BKN009
PROB40
TEMPO 1903/1909 3000 BR BKN003
PROB30
TEMPO 1905/1908 1200 BCFG
BECMG 1909/1911 FEW015
TEMPO 2003/2006 2500 BR
No reported NOTAMs for that airfield.



MET'MAP, your aeronautical weather chart ! - Copyright ORBIFLY December 2007 - Disclaimer

ORBIFLY MET'MAP TEAM :

Programming & Development : Alexandra Zaïnal
Concept & Development : Baudouin d'Aumeries
Co-Development & Prog : Marc-Olivier Méhu
Technical & hardware support : Manuel Goepfert

Contact : metmap@orbifly.com




SOURCES & CREDITS :

   NOAA